| Back to River Map | <<< Previous Forecast Point | | | Next Forecast Point >>> | Printer Version | Graph Version |  |
|
EASTSIDE BYPASS - EL NIDO (ELNC1)
| Latitude: 37.13º N | Longitude: 120.47º W | Elevation: 90 Feet | | Forecast Type: Unofficial Location |
| Location: Merced County in California | Bulletin Group: San Joaquin | River Group: San Joaquin |
| Issuance Time: | May 03 2026 at 8:46 AM PDT | Next Issuance: | May 04 2026 at 9:00 AM PDT
| |
| Action/Monitor: 12.0 Feet | Minor Flood: 19.0 Feet | Moderate Flood: 20.0 Feet | Major Flood: 20.8 Feet |
# Tabular Observed and Forecast Hydrograph Information
#
# Location: Eastside Bypass - El Nido (ELNC1)
#
# File Generation Time: 05/03/2026 at 08:47 AM PDT
# Data Interval: 1 Hour
#
# Most Recent Date & Time of Maximum Observed: 04/28/2026 at 10:00 AM PDT
# Maximum Observed Stage: 11.75 Feet
# Maximum Observed Flow: 430 cfs
#
# Earliest Date & Time of Maximum Forecast: 05/03/2026 at 09:00 AM PDT
# Maximum Forecast Stage: 11.73 Feet
# Maximum Forecast Flow: 425 cfs
#
# OBSERVED
#
# Date & Time (Local) Stage (Feet) Flow (cfs) Trend Observed Status
# ---------------------------------------------------------------------------------
04/28/2026 08 AM PDT 11.75 430 Normal
04/28/2026 09 AM PDT 11.75 430 0 Normal
04/28/2026 10 AM PDT 11.75 430 0 Normal
04/28/2026 11 AM PDT 11.74 428 - Normal
04/28/2026 12 PM PDT 11.74 428 0 Normal
04/28/2026 01 PM PDT 11.74 428 0 Normal
04/28/2026 02 PM PDT 11.73 425 - Normal
04/28/2026 03 PM PDT 11.73 425 0 Normal
04/28/2026 04 PM PDT 11.73 425 0 Normal
04/28/2026 05 PM PDT 11.72 423 - Normal
04/28/2026 06 PM PDT 11.71 420 - Normal
04/28/2026 07 PM PDT 11.71 420 0 Normal
04/28/2026 08 PM PDT 11.71 420 0 Normal
04/28/2026 09 PM PDT 11.71 420 0 Normal
04/28/2026 10 PM PDT 11.71 420 0 Normal
04/28/2026 11 PM PDT 11.71 420 0 Normal
04/29/2026 12 AM PDT 11.70 418 - Normal
04/29/2026 01 AM PDT 11.70 418 0 Normal
04/29/2026 02 AM PDT 11.70 418 0 Normal
04/29/2026 03 AM PDT 11.71 420 + Normal
04/29/2026 04 AM PDT 11.70 418 - Normal
04/29/2026 05 AM PDT 11.70 418 0 Normal
04/29/2026 06 AM PDT 11.70 418 0 Normal
04/29/2026 07 AM PDT 11.70 418 0 Normal
04/29/2026 08 AM PDT 11.70 418 0 Normal
04/29/2026 09 AM PDT 11.69 415 - Normal
04/29/2026 10 AM PDT 11.70 418 + Normal
04/29/2026 11 AM PDT 11.69 415 - Normal
04/29/2026 12 PM PDT 11.69 415 0 Normal
04/29/2026 01 PM PDT 11.69 415 0 Normal
04/29/2026 02 PM PDT 11.69 415 0 Normal
04/29/2026 03 PM PDT 11.69 415 0 Normal
04/29/2026 04 PM PDT 11.70 418 + Normal
04/29/2026 05 PM PDT 11.69 415 - Normal
04/29/2026 06 PM PDT 11.70 418 + Normal
04/29/2026 07 PM PDT 11.69 415 - Normal
04/29/2026 08 PM PDT 11.69 415 0 Normal
04/29/2026 09 PM PDT 11.70 418 + Normal
04/29/2026 10 PM PDT 11.70 418 0 Normal
04/29/2026 11 PM PDT 11.70 418 0 Normal
04/30/2026 12 AM PDT 11.71 420 + Normal
04/30/2026 01 AM PDT 11.70 418 - Normal
04/30/2026 02 AM PDT 11.70 418 0 Normal
04/30/2026 03 AM PDT 11.71 420 + Normal
04/30/2026 04 AM PDT 11.71 420 0 Normal
04/30/2026 05 AM PDT 11.71 420 0 Normal
04/30/2026 06 AM PDT 11.71 420 0 Normal
04/30/2026 07 AM PDT 11.71 420 0 Normal
04/30/2026 08 AM PDT 11.71 420 0 Normal
04/30/2026 09 AM PDT 11.71 420 0 Normal
04/30/2026 10 AM PDT 11.71 420 0 Normal
04/30/2026 11 AM PDT 11.70 418 - Normal
04/30/2026 12 PM PDT 11.71 420 + Normal
04/30/2026 01 PM PDT 11.70 418 - Normal
04/30/2026 02 PM PDT 11.70 418 0 Normal
04/30/2026 03 PM PDT 11.69 415 - Normal
04/30/2026 04 PM PDT 11.70 418 + Normal
04/30/2026 05 PM PDT 11.69 415 - Normal
04/30/2026 06 PM PDT 11.69 415 0 Normal
04/30/2026 07 PM PDT 11.69 415 0 Normal
04/30/2026 08 PM PDT 11.69 415 0 Normal
04/30/2026 09 PM PDT 11.69 415 0 Normal
04/30/2026 10 PM PDT 11.69 415 0 Normal
04/30/2026 11 PM PDT 11.70 418 + Normal
05/01/2026 12 AM PDT 11.69 415 - Normal
05/01/2026 01 AM PDT 11.70 418 + Normal
05/01/2026 02 AM PDT 11.69 415 - Normal
05/01/2026 03 AM PDT 11.70 418 + Normal
05/01/2026 04 AM PDT 11.70 418 0 Normal
05/01/2026 05 AM PDT 11.70 418 0 Normal
05/01/2026 06 AM PDT 11.71 420 + Normal
05/01/2026 07 AM PDT 11.72 423 + Normal
05/01/2026 08 AM PDT 11.71 420 - Normal
05/01/2026 09 AM PDT 11.71 420 0 Normal
05/01/2026 10 AM PDT 11.72 423 + Normal
05/01/2026 11 AM PDT 11.72 423 0 Normal
05/01/2026 12 PM PDT 11.72 423 0 Normal
05/01/2026 01 PM PDT 11.72 423 0 Normal
05/01/2026 02 PM PDT 11.72 423 0 Normal
05/01/2026 03 PM PDT 11.72 423 0 Normal
05/01/2026 04 PM PDT 11.72 423 0 Normal
05/01/2026 05 PM PDT 11.72 423 0 Normal
05/01/2026 06 PM PDT 11.72 423 0 Normal
05/01/2026 07 PM PDT 11.72 423 0 Normal
05/01/2026 08 PM PDT 11.72 423 0 Normal
05/01/2026 09 PM PDT 11.72 423 0 Normal
05/01/2026 10 PM PDT 11.73 425 + Normal
05/01/2026 11 PM PDT 11.72 423 - Normal
05/02/2026 12 AM PDT 11.72 423 0 Normal
05/02/2026 01 AM PDT 11.73 425 + Normal
05/02/2026 02 AM PDT 11.73 425 0 Normal
05/02/2026 03 AM PDT 11.73 425 0 Normal
05/02/2026 04 AM PDT 11.73 425 0 Normal
05/02/2026 05 AM PDT 11.72 423 - Normal
05/02/2026 06 AM PDT 11.72 423 0 Normal
05/02/2026 07 AM PDT 11.72 423 0 Normal
05/02/2026 08 AM PDT 11.72 423 0 Normal
05/02/2026 09 AM PDT 11.73 425 + Normal
05/02/2026 10 AM PDT 11.72 423 - Normal
05/02/2026 11 AM PDT 11.72 423 0 Normal
05/02/2026 12 PM PDT 11.72 423 0 Normal
05/02/2026 01 PM PDT 11.72 423 0 Normal
05/02/2026 02 PM PDT 11.72 423 0 Normal
05/02/2026 03 PM PDT 11.71 420 - Normal
05/02/2026 04 PM PDT 11.71 420 0 Normal
05/02/2026 05 PM PDT 11.71 420 0 Normal
05/02/2026 06 PM PDT 11.73 425 + Normal
05/02/2026 07 PM PDT 11.73 425 0 Normal
05/02/2026 08 PM PDT 11.72 423 - Normal
05/02/2026 09 PM PDT 11.70 418 - Normal
05/02/2026 10 PM PDT 11.71 420 + Normal
05/02/2026 11 PM PDT 11.71 420 0 Normal
05/03/2026 12 AM PDT 11.72 423 + Normal
05/03/2026 01 AM PDT 11.73 425 + Normal
05/03/2026 02 AM PDT 11.73 425 0 Normal
05/03/2026 03 AM PDT 11.73 425 0 Normal
05/03/2026 04 AM PDT 11.73 425 0 Normal
05/03/2026 05 AM PDT 11.73 425 0 Normal
05/03/2026 06 AM PDT 11.73 425 0 Normal
05/03/2026 07 AM PDT 11.73 425 0 Normal
05/03/2026 08 AM PDT 11.73 425 0 Normal
#
# FORECAST
#
# Date & Time (Local) Stage (Feet) Flow (cfs) Trend Forecast Status
# ---------------------------------------------------------------------------------
05/03/2026 09 AM PDT 11.73 425 Normal
05/03/2026 10 AM PDT 11.73 425 0 Normal
05/03/2026 11 AM PDT 11.73 425 0 Normal
05/03/2026 12 PM PDT 11.73 425 0 Normal
05/03/2026 01 PM PDT 11.73 425 0 Normal
05/03/2026 02 PM PDT 11.73 425 0 Normal
05/03/2026 03 PM PDT 11.73 425 0 Normal
05/03/2026 04 PM PDT 11.73 425 0 Normal
05/03/2026 05 PM PDT 11.73 425 0 Normal
05/03/2026 06 PM PDT 11.73 425 0 Normal
05/03/2026 07 PM PDT 11.73 425 0 Normal
05/03/2026 08 PM PDT 11.73 425 0 Normal
05/03/2026 09 PM PDT 11.73 425 0 Normal
05/03/2026 10 PM PDT 11.73 425 0 Normal
05/03/2026 11 PM PDT 11.73 425 0 Normal
05/04/2026 12 AM PDT 11.73 425 0 Normal
05/04/2026 01 AM PDT 11.73 425 0 Normal
05/04/2026 02 AM PDT 11.73 425 0 Normal
05/04/2026 03 AM PDT 11.73 425 0 Normal
05/04/2026 04 AM PDT 11.73 425 0 Normal
05/04/2026 05 AM PDT 11.73 425 0 Normal
05/04/2026 06 AM PDT 11.73 425 0 Normal
05/04/2026 07 AM PDT 11.73 425 0 Normal
05/04/2026 08 AM PDT 11.73 425 0 Normal
05/04/2026 09 AM PDT 11.73 425 0 Normal
05/04/2026 10 AM PDT 11.73 425 0 Normal
05/04/2026 11 AM PDT 11.72 423 - Normal
05/04/2026 12 PM PDT 11.72 423 0 Normal
05/04/2026 01 PM PDT 11.72 423 0 Normal
05/04/2026 02 PM PDT 11.72 423 0 Normal
05/04/2026 03 PM PDT 11.72 423 0 Normal
05/04/2026 04 PM PDT 11.72 423 0 Normal
05/04/2026 05 PM PDT 11.72 423 0 Normal
05/04/2026 06 PM PDT 11.72 423 0 Normal
05/04/2026 07 PM PDT 11.72 423 0 Normal
05/04/2026 08 PM PDT 11.72 423 0 Normal
05/04/2026 09 PM PDT 11.72 423 0 Normal
05/04/2026 10 PM PDT 11.72 423 0 Normal
05/04/2026 11 PM PDT 11.72 423 0 Normal
05/05/2026 12 AM PDT 11.72 423 0 Normal
05/05/2026 01 AM PDT 11.72 423 0 Normal
05/05/2026 02 AM PDT 11.72 423 0 Normal
05/05/2026 03 AM PDT 11.72 423 0 Normal
05/05/2026 04 AM PDT 11.72 423 0 Normal
05/05/2026 05 AM PDT 11.72 423 0 Normal
05/05/2026 06 AM PDT 11.72 423 0 Normal
05/05/2026 07 AM PDT 11.72 423 0 Normal
05/05/2026 08 AM PDT 11.72 423 0 Normal
05/05/2026 09 AM PDT 11.72 423 0 Normal
05/05/2026 10 AM PDT 11.72 423 0 Normal
05/05/2026 11 AM PDT 11.72 423 0 Normal
05/05/2026 12 PM PDT 11.72 423 0 Normal
05/05/2026 01 PM PDT 11.72 423 0 Normal
05/05/2026 02 PM PDT 11.72 423 0 Normal
05/05/2026 03 PM PDT 11.72 423 0 Normal
05/05/2026 04 PM PDT 11.72 423 0 Normal
05/05/2026 05 PM PDT 11.72 423 0 Normal
05/05/2026 06 PM PDT 11.72 423 0 Normal
05/05/2026 07 PM PDT 11.72 423 0 Normal
05/05/2026 08 PM PDT 11.72 423 0 Normal
05/05/2026 09 PM PDT 11.72 423 0 Normal
05/05/2026 10 PM PDT 11.72 423 0 Normal
05/05/2026 11 PM PDT 11.72 423 0 Normal
05/06/2026 12 AM PDT 11.72 423 0 Normal
05/06/2026 01 AM PDT 11.72 423 0 Normal
05/06/2026 02 AM PDT 11.72 423 0 Normal
05/06/2026 03 AM PDT 11.72 423 0 Normal
05/06/2026 04 AM PDT 11.72 423 0 Normal
05/06/2026 05 AM PDT 11.72 423 0 Normal
05/06/2026 06 AM PDT 11.72 423 0 Normal
05/06/2026 07 AM PDT 11.72 423 0 Normal
05/06/2026 08 AM PDT 11.72 423 0 Normal
05/06/2026 09 AM PDT 11.72 423 0 Normal
05/06/2026 10 AM PDT 11.72 423 0 Normal
05/06/2026 11 AM PDT 11.72 423 0 Normal
05/06/2026 12 PM PDT 11.72 423 0 Normal
05/06/2026 01 PM PDT 11.72 423 0 Normal
05/06/2026 02 PM PDT 11.72 423 0 Normal
05/06/2026 03 PM PDT 11.72 423 0 Normal
05/06/2026 04 PM PDT 11.72 423 0 Normal
05/06/2026 05 PM PDT 11.72 423 0 Normal
05/06/2026 06 PM PDT 11.72 423 0 Normal
05/06/2026 07 PM PDT 11.72 423 0 Normal
05/06/2026 08 PM PDT 11.72 423 0 Normal
05/06/2026 09 PM PDT 11.72 423 0 Normal
05/06/2026 10 PM PDT 11.72 423 0 Normal
05/06/2026 11 PM PDT 11.72 423 0 Normal
05/07/2026 12 AM PDT 11.72 423 0 Normal
05/07/2026 01 AM PDT 11.72 423 0 Normal
05/07/2026 02 AM PDT 11.72 423 0 Normal
05/07/2026 03 AM PDT 11.72 423 0 Normal
05/07/2026 04 AM PDT 11.72 423 0 Normal
05/07/2026 05 AM PDT 11.72 423 0 Normal
05/07/2026 06 AM PDT 11.72 423 0 Normal
05/07/2026 07 AM PDT 11.72 423 0 Normal
05/07/2026 08 AM PDT 11.72 423 0 Normal
05/07/2026 09 AM PDT 11.71 420 - Normal
05/07/2026 10 AM PDT 11.71 420 0 Normal
05/07/2026 11 AM PDT 11.71 420 0 Normal
05/07/2026 12 PM PDT 11.71 420 0 Normal
05/07/2026 01 PM PDT 11.71 420 0 Normal
05/07/2026 02 PM PDT 11.71 420 0 Normal
05/07/2026 03 PM PDT 11.71 420 0 Normal
05/07/2026 04 PM PDT 11.71 420 0 Normal
05/07/2026 05 PM PDT 11.71 420 0 Normal
05/07/2026 06 PM PDT 11.71 420 0 Normal
05/07/2026 07 PM PDT 11.71 420 0 Normal
05/07/2026 08 PM PDT 11.71 420 0 Normal
05/07/2026 09 PM PDT 11.71 420 0 Normal
05/07/2026 10 PM PDT 11.71 420 0 Normal
05/07/2026 11 PM PDT 11.71 420 0 Normal
05/08/2026 12 AM PDT 11.71 420 0 Normal
05/08/2026 01 AM PDT 11.71 420 0 Normal
05/08/2026 02 AM PDT 11.71 420 0 Normal
05/08/2026 03 AM PDT 11.71 420 0 Normal
05/08/2026 04 AM PDT 11.71 420 0 Normal
05/08/2026 05 AM PDT 11.71 420 0 Normal
#
# NOTE 1: Stages are rounded to the nearest hundredth (.01) of a foot.
# NOTE 2: Flows are rounded to the nearest (1) cfs.
# NOTE 3: Trends are determined using hourly change in unrounded stage and flow.
# NOTE 4: Maximum Values are determined using unrounded stage and flow.
|